← Previous June 18, 2024 8:17 AM Next →

FTUS43 KMPX 152333
TAFMSP
TAF
KMSP 152333Z 1600/1706 12012G23KT 5SM SHRA BR OVC040
      TEMPO 1601/1605 3SM TSRA BR OVC035CB
     FM160500 15012G20KT 5SM -TSRA BR OVC010CB
     FM160900 18012KT P6SM OVC030
     FM161500 20011KT P6SM OVC020
     FM161700 20012G20KT P6SM BKN050
     FM170000 23012KT P6SM BKN050=